createdAt,value
2019-04-11T00:01:05.975Z,46.09
2019-04-11T00:03:35.670Z,49.00
2019-04-11T00:06:05.449Z,46.27
2019-04-11T00:08:35.802Z,49.25
2019-04-11T00:11:06.147Z,47.62
2019-04-11T00:13:36.477Z,44.50
2019-04-11T00:16:08.821Z,48.89
2019-04-11T00:18:38.795Z,47.18
2019-04-11T00:21:08.711Z,43.74
2019-04-11T00:23:38.624Z,45.39
2019-04-11T00:26:08.430Z,43.56
2019-04-11T00:28:37.875Z,41.33
2019-04-11T00:31:08.371Z,41.50
2019-04-11T00:33:38.220Z,40.51
2019-04-11T00:36:08.340Z,46.86
2019-04-11T00:38:38.233Z,41.68
2019-04-11T00:41:08.000Z,40.58
2019-04-11T00:43:41.958Z,40.54
2019-04-11T00:46:09.854Z,42.33
2019-04-11T00:48:39.402Z,39.67
2019-04-11T00:51:09.810Z,46.05
2019-04-11T00:53:40.272Z,40.65
2019-04-11T00:56:10.855Z,44.12
2019-04-11T00:58:41.542Z,47.76
2019-04-11T01:01:11.418Z,42.71
2019-04-11T01:03:40.871Z,42.52
2019-04-11T01:06:10.295Z,43.21
2019-04-11T01:08:39.975Z,43.86
2019-04-11T01:11:12.405Z,44.79
2019-04-11T01:13:50.323Z,42.49
2019-04-11T01:16:21.015Z,48.06
2019-04-11T01:18:50.420Z,48.04
2019-04-11T01:21:20.102Z,45.37
2019-04-11T01:23:49.438Z,47.69
2019-04-11T01:26:19.154Z,46.74
2019-04-11T01:28:49.068Z,46.67
2019-04-11T01:31:20.494Z,49.11
2019-04-11T01:33:49.931Z,46.43
2019-04-11T01:36:19.291Z,46.46
2019-04-11T01:38:52.633Z,49.21
2019-04-11T01:41:22.485Z,49.20
2019-04-11T01:43:56.411Z,49.07
2019-04-11T01:46:23.018Z,47.20
2019-04-11T01:51:33.884Z,46.77
2019-04-11T01:54:03.688Z,46.90
2019-04-11T01:56:33.610Z,49.15
2019-04-11T01:59:03.213Z,48.63
2019-04-11T02:01:56.935Z,47.45
2019-04-11T02:04:38.470Z,47.50
2019-04-11T02:07:10.150Z,48.77
2019-04-11T02:09:40.148Z,49.23
2019-04-11T02:12:09.994Z,47.44
2019-04-11T02:14:39.807Z,45.43
2019-04-11T02:17:10.445Z,45.92
2019-04-11T02:19:40.523Z,49.36
2019-04-11T02:22:28.577Z,47.69
2019-04-11T02:25:12.271Z,48.85
2019-04-11T02:27:42.300Z,49.28
2019-04-11T02:30:14.388Z,47.32
2019-04-11T02:32:45.490Z,46.15
2019-04-11T02:35:15.502Z,43.81
2019-04-11T02:37:47.586Z,47.00
2019-04-11T02:40:17.684Z,46.13
2019-04-11T02:42:47.676Z,47.53
2019-04-11T02:45:31.108Z,49.38
2019-04-11T02:47:51.270Z,48.78
2019-04-11T02:50:22.006Z,48.52
2019-04-11T02:52:52.046Z,46.75
2019-04-11T02:55:22.903Z,48.24
2019-04-11T02:57:54.204Z,46.30
2019-04-11T03:00:24.474Z,46.81
2019-04-11T03:02:56.925Z,48.11
2019-04-11T03:05:26.954Z,44.87
2019-04-11T03:07:58.268Z,47.72
2019-04-11T03:10:28.923Z,43.74
2019-04-11T03:12:59.040Z,41.79
2019-04-11T03:15:43.000Z,46.49
2019-04-11T03:18:04.180Z,46.71
2019-04-11T03:20:39.213Z,44.56
2019-04-11T03:23:08.567Z,46.02
2019-04-11T03:25:38.510Z,41.37
2019-04-11T03:28:14.058Z,49.17
2019-04-11T03:31:01.690Z,46.02
2019-04-11T03:38:40.017Z,49.30
2019-04-11T03:41:05.907Z,49.69
2019-04-11T03:43:30.165Z,43.27
2019-04-11T03:46:10.910Z,46.13
2019-04-11T03:48:33.374Z,46.46
2019-04-11T03:50:54.246Z,46.27
2019-04-11T03:53:25.333Z,48.99
2019-04-11T03:55:55.885Z,44.55
2019-04-11T03:58:25.925Z,44.40
2019-04-11T04:01:00.692Z,41.30
2019-04-11T04:03:28.973Z,40.97
2019-04-11T04:06:00.014Z,49.48
2019-04-11T04:08:31.455Z,45.38
2019-04-11T04:11:16.822Z,45.00
2019-04-11T04:13:54.473Z,47.53
2019-04-11T04:16:59.826Z,47.88
2019-04-11T04:19:37.676Z,46.49
2019-04-11T04:22:15.481Z,45.33
2019-04-11T04:24:46.799Z,45.54
2019-04-11T04:27:17.281Z,43.72
2019-04-11T04:29:51.247Z,49.32
2019-04-11T04:32:19.266Z,43.89
2019-04-11T04:34:50.833Z,46.50
2019-04-11T04:37:22.409Z,48.15
2019-04-11T04:40:13.576Z,47.74
2019-04-11T04:42:31.599Z,45.17
2019-04-11T04:44:55.956Z,48.93
2019-04-11T04:47:37.018Z,46.56
2019-04-11T04:49:57.281Z,46.66
2019-04-11T04:52:29.669Z,47.51
2019-04-11T04:55:01.522Z,46.58
2019-04-11T04:57:31.762Z,44.54
2019-04-11T05:00:03.278Z,47.70
2019-04-11T05:02:35.452Z,47.63
2019-04-11T05:05:06.102Z,43.34
2019-04-11T05:07:40.224Z,49.68
2019-04-11T05:10:08.910Z,49.37
2019-04-11T05:12:38.921Z,48.46
2019-04-11T05:15:10.044Z,49.14
2019-04-11T05:17:40.707Z,46.65
2019-04-11T05:20:11.981Z,49.00
2019-04-11T05:22:41.940Z,49.43
2019-04-11T05:25:12.617Z,48.91
2019-04-11T05:27:42.524Z,47.92
2019-04-11T05:30:12.197Z,45.08
2019-04-11T05:32:41.907Z,47.99
2019-04-11T05:35:11.603Z,47.70
2019-04-11T05:37:41.257Z,47.82
2019-04-11T05:40:11.249Z,46.52
2019-04-11T05:42:41.716Z,45.71
2019-04-11T05:45:15.685Z,43.70
2019-04-11T05:47:43.493Z,49.38
2019-04-11T05:50:20.073Z,47.54
2019-04-11T05:52:50.402Z,49.27
2019-04-11T05:55:20.220Z,47.86
2019-04-11T05:57:50.218Z,44.81
2019-04-11T06:00:41.733Z,48.91
2019-04-11T06:03:11.755Z,46.59
2019-04-11T06:06:06.765Z,41.57
2019-04-11T06:08:36.327Z,46.13
2019-04-11T06:11:31.121Z,42.77
2019-04-11T06:14:26.996Z,43.32
2019-04-11T06:17:00.872Z,41.42
2019-04-11T06:20:06.053Z,48.46
2019-04-11T06:22:38.613Z,41.93
2019-04-11T06:25:25.832Z,42.76
2019-04-11T06:28:04.083Z,42.42
2019-04-11T06:30:50.716Z,45.71
2019-04-11T06:33:28.785Z,45.41
2019-04-11T06:36:23.588Z,49.49
2019-04-11T06:39:13.870Z,46.56
2019-04-11T06:42:01.668Z,46.80
2019-04-11T06:44:50.125Z,45.93
2019-04-11T06:47:37.848Z,48.89
2019-04-11T06:50:25.105Z,45.59
2019-04-11T06:52:54.737Z,43.83
2019-04-11T06:55:42.681Z,46.74
2019-04-11T06:58:16.441Z,49.01
2019-04-11T07:00:50.007Z,47.44
2019-04-11T07:03:27.470Z,47.36
2019-04-11T07:05:57.257Z,46.99
2019-04-11T07:08:30.719Z,46.61
2019-04-11T07:11:03.453Z,47.10
2019-04-11T07:13:47.702Z,48.16
2019-04-11T07:16:18.519Z,48.19
2019-04-11T07:18:59.120Z,47.04
2019-04-11T07:21:35.325Z,48.30
2019-04-11T07:24:24.690Z,46.92
2019-04-11T07:27:03.154Z,45.00
2019-04-11T07:30:00.758Z,45.68
2019-04-11T07:32:30.795Z,45.62
2019-04-11T07:35:25.215Z,47.54
2019-04-11T07:37:58.099Z,43.93
2019-04-11T07:40:56.172Z,46.23
2019-04-11T07:43:29.203Z,46.80
2019-04-11T07:46:25.159Z,47.84
2019-04-11T07:48:59.437Z,45.44
2019-04-11T07:51:34.322Z,46.24
2019-04-11T07:54:06.621Z,46.88
2019-04-11T07:57:08.362Z,47.66
2019-04-11T08:00:00.270Z,44.76
2019-04-11T08:02:48.182Z,46.18
2019-04-11T08:05:34.737Z,47.54
2019-04-11T08:08:23.251Z,47.72
2019-04-11T08:11:17.829Z,47.74
2019-04-11T08:14:04.805Z,45.21
2019-04-11T08:17:38.986Z,44.34
2019-04-11T08:20:55.348Z,44.99
2019-04-11T08:23:25.585Z,46.71
2019-04-11T08:26:28.321Z,46.12
2019-04-11T08:29:05.309Z,45.56
2019-04-11T08:31:48.775Z,47.36
2019-04-11T08:34:20.292Z,47.22
2019-04-11T08:37:09.332Z,47.23
2019-04-11T08:39:42.790Z,47.36
2019-04-11T08:42:31.697Z,47.29
2019-04-11T08:45:01.476Z,47.42
2019-04-11T08:47:46.865Z,47.23
2019-04-11T08:50:12.313Z,47.28
2019-04-11T08:53:00.880Z,47.42
2019-04-11T08:55:53.619Z,47.39
2019-04-11T08:58:40.691Z,47.20
2019-04-11T09:01:11.993Z,47.20
2019-04-11T09:04:07.407Z,47.02
2019-04-11T09:06:37.172Z,47.02
2019-04-11T09:09:25.786Z,47.07
2019-04-11T09:12:02.494Z,47.06
2019-04-11T09:14:50.583Z,47.09
2019-04-11T09:17:36.660Z,47.06
2019-04-11T09:20:38.519Z,46.91
2019-04-11T09:23:11.245Z,46.75
2019-04-11T09:25:59.446Z,46.61
2019-04-11T09:28:44.045Z,46.66
2019-04-11T09:31:42.114Z,46.92
2019-04-11T09:34:37.735Z,46.94
2019-04-11T09:37:36.020Z,47.13
2019-04-11T09:40:26.488Z,47.16
2019-04-11T09:43:14.212Z,47.10
2019-04-11T09:46:01.961Z,47.04
2019-04-11T09:48:53.919Z,47.10
2019-04-11T09:51:49.911Z,47.09
2019-04-11T09:54:32.444Z,47.01
2019-04-11T09:57:24.873Z,45.76
2019-04-11T10:00:26.586Z,44.04
2019-04-11T10:03:15.474Z,46.24
2019-04-11T10:06:03.034Z,47.01
2019-04-11T10:08:51.133Z,46.72
2019-04-11T10:11:42.986Z,46.37
2019-04-11T10:14:15.530Z,45.13
2019-04-11T10:17:02.969Z,45.79
2019-04-11T10:19:44.356Z,46.30
2019-04-11T10:22:48.399Z,46.42
2019-04-11T10:25:30.708Z,46.38
2019-04-11T10:28:30.407Z,46.51
2019-04-11T10:31:29.037Z,47.04
2019-04-11T10:34:07.430Z,46.39
2019-04-11T10:36:47.392Z,46.61
2019-04-11T10:39:36.042Z,47.28
2019-04-11T10:42:08.668Z,46.71
2019-04-11T10:45:04.528Z,46.44
2019-04-11T10:47:34.645Z,46.35
2019-04-11T10:50:19.469Z,47.07
2019-04-11T10:52:52.998Z,47.19
2019-04-11T10:55:40.522Z,46.48
2019-04-11T10:58:14.516Z,47.22
2019-04-11T11:00:57.754Z,46.46
2019-04-11T11:03:32.066Z,46.48
2019-04-11T11:06:03.123Z,47.28
2019-04-11T11:08:36.131Z,45.70
2019-04-11T11:11:28.361Z,45.75
2019-04-11T11:14:12.269Z,45.46
2019-04-11T11:16:54.757Z,45.10
2019-04-11T11:20:11.857Z,45.29
2019-04-11T11:22:49.019Z,44.77
2019-04-11T11:25:51.581Z,45.05
2019-04-11T11:28:23.786Z,44.35
2019-04-11T11:31:28.004Z,44.14
2019-04-11T11:33:58.777Z,44.15
2019-04-11T11:36:54.815Z,43.77
2019-04-11T11:39:47.254Z,43.70
2019-04-11T11:42:48.423Z,42.79
2019-04-11T11:45:28.361Z,42.12
2019-04-11T11:48:13.652Z,42.13
2019-04-11T11:50:39.114Z,41.72
2019-04-11T11:53:40.576Z,42.66
2019-04-11T11:56:10.634Z,42.76
2019-04-11T11:59:11.299Z,42.80
2019-04-11T12:01:49.313Z,42.66
2019-04-11T12:04:42.239Z,42.33
2019-04-11T12:07:14.599Z,43.05
2019-04-11T12:10:13.253Z,43.52
2019-04-11T12:13:06.668Z,43.49
2019-04-11T12:16:01.621Z,43.04
2019-04-11T12:18:47.233Z,43.43
2019-04-11T12:21:20.499Z,43.85
2019-04-11T12:24:06.409Z,44.45
2019-04-11T12:26:41.636Z,43.96
2019-04-11T12:29:30.622Z,43.23
2019-04-11T12:32:02.128Z,43.83
2019-04-11T12:34:49.416Z,43.44
2019-04-11T12:37:25.301Z,43.43
2019-04-11T12:40:13.862Z,43.11
2019-04-11T12:42:43.433Z,43.59
2019-04-11T12:45:30.943Z,43.63
2019-04-11T12:48:01.698Z,42.40
2019-04-11T12:51:06.062Z,43.42
2019-04-11T12:53:35.629Z,43.73
2019-04-11T12:56:30.117Z,43.93
2019-04-11T12:59:05.550Z,43.25
2019-04-11T13:01:53.028Z,43.82
2019-04-11T13:04:36.832Z,41.98
2019-04-11T13:07:31.743Z,42.03
2019-04-11T13:10:27.589Z,42.34
2019-04-11T13:13:19.205Z,42.31
2019-04-11T13:15:55.812Z,43.80
2019-04-11T13:18:59.763Z,42.91
2019-04-11T13:21:34.277Z,42.62
2019-04-11T13:24:28.760Z,45.24
2019-04-11T13:27:19.178Z,43.60
2019-04-11T13:30:06.669Z,41.34
2019-04-11T13:32:58.391Z,43.57
2019-04-11T13:36:05.397Z,41.98
2019-04-11T13:38:42.584Z,41.34
2019-04-11T13:41:50.851Z,42.19
2019-04-11T13:44:34.834Z,42.07
2019-04-11T13:47:32.094Z,40.92
2019-04-11T13:50:05.301Z,41.02
2019-04-11T13:52:49.119Z,40.28
2019-04-11T13:55:30.364Z,40.62
2019-04-11T13:58:18.912Z,40.40
2019-04-11T14:01:07.508Z,40.59
2019-04-11T14:03:58.962Z,40.73
2019-04-11T14:06:35.367Z,41.25
2019-04-11T14:09:40.193Z,39.83
2019-04-11T14:12:15.630Z,40.98
2019-04-11T14:15:07.047Z,38.63
2019-04-11T14:17:42.515Z,40.53
2019-04-11T14:20:29.801Z,40.03
2019-04-11T14:23:15.081Z,39.55
2019-04-11T14:26:17.504Z,40.82
2019-04-11T14:29:15.263Z,40.34
2019-04-11T14:32:09.875Z,41.42
2019-04-11T14:35:04.993Z,40.16
2019-04-11T14:37:53.588Z,41.07
2019-04-11T14:40:48.500Z,39.95
2019-04-11T14:43:26.201Z,41.15
2019-04-11T14:46:23.653Z,41.56
2019-04-11T14:49:11.167Z,41.62
2019-04-11T14:51:59.953Z,41.32
2019-04-11T14:54:41.326Z,41.57
2019-04-11T14:57:35.172Z,41.50
2019-04-11T15:00:15.499Z,41.98
2019-04-11T15:03:04.005Z,41.81
2019-04-11T15:05:44.605Z,41.70
2019-04-11T15:08:14.923Z,42.13
2019-04-11T15:11:18.593Z,40.81
2019-04-11T15:13:52.600Z,41.72
2019-04-11T15:16:40.058Z,41.38
2019-04-11T15:19:09.846Z,41.23
2019-04-11T15:22:10.793Z,41.23
2019-04-11T15:24:40.456Z,40.68
2019-04-11T15:27:28.155Z,40.71
2019-04-11T15:29:59.229Z,41.27
2019-04-11T15:32:36.511Z,40.91
2019-04-11T15:35:12.196Z,40.98
2019-04-11T15:38:00.775Z,40.89
2019-04-11T15:40:36.884Z,40.65
2019-04-11T15:43:42.257Z,40.27
2019-04-11T15:46:23.445Z,41.02
2019-04-11T15:49:20.494Z,41.06
2019-04-11T15:51:45.235Z,38.44
2019-04-11T15:54:34.855Z,36.23
2019-04-11T15:57:33.085Z,36.79
2019-04-11T16:00:21.800Z,39.86
2019-04-11T16:03:28.485Z,35.75
2019-04-11T16:06:15.844Z,34.54
2019-04-11T16:08:47.395Z,36.41
2019-04-11T16:11:42.220Z,34.57
2019-04-11T16:14:23.032Z,34.62
2019-04-11T16:17:02.291Z,35.59
2019-04-11T16:19:59.936Z,33.82
2019-04-11T16:22:47.628Z,34.70
2019-04-11T16:25:19.283Z,36.44
2019-04-11T16:28:08.214Z,35.08
2019-04-11T16:30:40.417Z,36.42
2019-04-11T16:33:17.043Z,40.47
2019-04-11T16:36:14.656Z,41.15
2019-04-11T16:39:19.950Z,41.90
2019-04-11T16:42:03.754Z,41.44
2019-04-11T16:44:54.897Z,39.69
2019-04-11T16:47:49.291Z,40.61
2019-04-11T16:50:18.716Z,40.43
2019-04-11T16:52:48.163Z,41.79
2019-04-11T16:55:17.525Z,40.90
2019-04-11T16:57:46.925Z,41.15
2019-04-11T17:00:20.227Z,41.64
2019-04-11T17:02:47.514Z,38.13
2019-04-11T17:05:16.950Z,41.32
2019-04-11T17:08:04.163Z,40.61
2019-04-11T17:10:51.384Z,40.70
2019-04-11T17:13:20.852Z,41.59
2019-04-11T17:15:50.236Z,39.24
2019-04-11T17:18:19.615Z,41.67
2019-04-11T17:20:48.973Z,42.97
2019-04-11T17:23:18.335Z,41.90
2019-04-11T17:25:52.351Z,37.66
2019-04-11T17:28:22.649Z,40.75
2019-04-11T17:30:49.878Z,41.01
2019-04-11T17:33:19.237Z,42.26
2019-04-11T17:35:48.776Z,42.45
2019-04-11T17:38:18.137Z,39.17
2019-04-11T17:40:47.483Z,42.83
2019-04-11T17:43:16.931Z,41.76
2019-04-11T17:45:46.356Z,38.76
2019-04-11T17:48:15.884Z,37.74
2019-04-11T17:50:45.312Z,37.72
2019-04-11T17:53:14.728Z,40.89
2019-04-11T17:55:44.093Z,40.00
2019-04-11T17:58:13.560Z,36.85
2019-04-11T18:00:45.154Z,40.03
2019-04-11T18:03:14.539Z,38.21
2019-04-11T18:05:46.632Z,43.66
2019-04-11T18:08:14.968Z,42.13
2019-04-11T18:10:44.407Z,36.91
2019-04-11T18:13:13.849Z,38.59
2019-04-11T18:15:43.223Z,38.46
2019-04-11T18:18:12.605Z,39.19
2019-04-11T18:20:42.115Z,34.93
2019-04-11T18:23:11.712Z,36.42
2019-04-11T18:25:41.070Z,38.56
2019-04-11T18:28:10.515Z,36.22
2019-04-11T18:30:39.969Z,41.91
2019-04-11T18:33:09.456Z,42.30
2019-04-11T18:35:38.828Z,39.96
2019-04-11T18:38:08.436Z,42.98
2019-04-11T18:40:37.977Z,42.85
2019-04-11T18:43:08.909Z,44.57
2019-04-11T18:45:38.299Z,34.15
2019-04-11T18:48:07.823Z,39.01
2019-04-11T18:50:37.205Z,39.86
2019-04-11T18:53:06.566Z,33.66
2019-04-11T18:55:35.979Z,44.06
2019-04-11T18:58:05.461Z,44.16
2019-04-11T19:00:41.060Z,45.51
2019-04-11T19:03:10.882Z,42.75
2019-04-11T19:05:42.754Z,43.24
2019-04-11T19:08:13.120Z,45.40
2019-04-11T19:10:42.970Z,42.52
2019-04-11T19:13:16.693Z,39.71
2019-04-11T19:15:45.719Z,37.49
2019-04-11T19:18:17.043Z,38.41
2019-04-11T19:20:49.875Z,46.05
2019-04-11T19:23:17.758Z,38.60
2019-04-11T19:25:47.219Z,40.95
2019-04-11T19:28:16.660Z,38.30
2019-04-11T19:30:46.308Z,37.62
2019-04-11T19:33:15.673Z,39.60
2019-04-11T19:35:45.050Z,44.55
2019-04-11T19:38:29.123Z,38.66
2019-04-11T19:40:58.582Z,41.74
2019-04-11T19:43:28.109Z,41.16
2019-04-11T19:45:58.733Z,40.77
2019-04-11T19:48:28.330Z,42.62
2019-04-11T19:50:58.969Z,39.90
2019-04-11T19:53:32.761Z,45.30
2019-04-11T19:56:28.341Z,37.32
2019-04-11T19:58:57.737Z,37.47
2019-04-11T20:01:40.751Z,35.07
2019-04-11T20:04:10.127Z,33.99
2019-04-11T20:06:39.709Z,33.78
2019-04-11T20:09:09.432Z,35.58
2019-04-11T20:11:38.818Z,35.58
2019-04-11T20:14:08.369Z,42.22
2019-04-11T20:16:41.982Z,39.09
2019-04-11T20:19:08.896Z,38.68
2019-04-11T20:21:39.004Z,43.48
2019-04-11T20:24:08.417Z,45.17
2019-04-11T20:26:37.806Z,39.71
2019-04-11T20:29:07.238Z,39.99
2019-04-11T20:31:36.627Z,40.98
2019-04-11T20:34:07.227Z,43.49
2019-04-11T20:36:41.066Z,40.57
2019-04-11T20:39:09.069Z,38.37
2019-04-11T20:41:38.481Z,38.01
2019-04-11T20:44:07.970Z,38.54
2019-04-11T20:46:37.618Z,41.72
2019-04-11T20:49:07.008Z,45.43
2019-04-11T20:51:36.450Z,39.17
2019-04-11T20:54:07.244Z,38.88
2019-04-11T20:56:40.128Z,36.20
2019-04-11T20:59:10.362Z,38.28
2019-04-11T21:01:39.228Z,39.23
2019-04-11T21:04:08.680Z,39.20
2019-04-11T21:06:38.030Z,39.30
2019-04-11T21:09:10.408Z,44.29
2019-04-11T21:11:39.815Z,38.35
2019-04-11T21:14:09.247Z,39.58
2019-04-11T21:16:38.650Z,40.60
2019-04-11T21:19:08.008Z,41.61
2019-04-11T21:21:37.409Z,38.66
2019-04-11T21:24:06.791Z,39.06
2019-04-11T21:26:36.160Z,37.38
2019-04-11T21:29:05.902Z,43.76
2019-04-11T21:31:35.261Z,39.98
2019-04-11T21:34:04.712Z,42.10
2019-04-11T21:36:34.082Z,42.36
2019-04-11T21:39:04.514Z,41.54
2019-04-11T21:41:36.045Z,38.89
2019-04-11T21:44:06.084Z,42.30
2019-04-11T21:46:38.124Z,35.38
2019-04-11T21:49:07.427Z,35.11
2019-04-11T21:51:41.538Z,36.21
2019-04-11T21:54:07.881Z,34.80
2019-04-11T21:56:37.244Z,38.69
2019-04-11T21:59:06.637Z,34.29
2019-04-11T22:01:37.651Z,38.60
2019-04-11T22:04:07.120Z,36.40
2019-04-11T22:06:36.522Z,35.37
2019-04-11T22:09:08.106Z,35.03
2019-04-11T22:11:38.393Z,34.51
2019-04-11T22:14:10.986Z,43.18
2019-04-11T22:16:39.462Z,44.46
2019-04-11T22:19:09.031Z,43.57
2019-04-11T22:21:38.396Z,43.08
2019-04-11T22:24:07.856Z,46.03
2019-04-11T22:26:37.299Z,43.37
2019-04-11T22:29:06.773Z,46.50
2019-04-11T22:31:36.195Z,46.55
2019-04-11T22:34:17.612Z,45.74
2019-04-11T22:36:46.981Z,44.47
2019-04-11T22:39:16.360Z,45.67
2019-04-11T22:41:45.726Z,44.57
2019-04-11T22:44:15.096Z,45.30
2019-04-11T22:46:44.454Z,46.51
2019-04-11T22:49:13.830Z,47.46
2019-04-11T22:51:43.671Z,47.17
2019-04-11T22:54:13.800Z,46.61
2019-04-11T22:56:43.221Z,44.74
2019-04-11T22:59:14.009Z,47.33
2019-04-11T23:01:46.503Z,45.94
2019-04-11T23:04:17.032Z,40.24
2019-04-11T23:06:47.247Z,45.70
2019-04-11T23:09:19.551Z,47.13
2019-04-11T23:11:48.247Z,47.36
2019-04-11T23:14:17.611Z,43.83
2019-04-11T23:16:46.971Z,46.82
2019-04-11T23:19:16.345Z,47.24
2019-04-11T23:21:45.711Z,45.55
2019-04-11T23:24:15.084Z,42.64
2019-04-11T23:26:44.456Z,44.16
2019-04-11T23:29:15.952Z,47.72
2019-04-11T23:31:44.873Z,44.12
2019-04-11T23:34:14.223Z,45.37
2019-04-11T23:36:43.580Z,44.95
2019-04-11T23:39:12.934Z,46.42
2019-04-11T23:41:42.333Z,46.53
2019-04-11T23:44:11.689Z,43.62
2019-04-11T23:46:41.056Z,45.22
2019-04-11T23:49:10.426Z,47.43
2019-04-11T23:51:39.799Z,45.15
2019-04-11T23:54:09.223Z,46.23
2019-04-11T23:56:38.567Z,46.18
2019-04-11T23:59:08.022Z,45.61
